sensor_id;sensor_type;location;lat;lon;timestamp;P1;durP1;ratioP1;P2;durP2;ratioP2
71303;SDS011;59091;47.446;19.148;2024-01-15T00:02:02;65.18;;;30.90;;
71303;SDS011;59091;47.446;19.148;2024-01-15T00:04:28;66.88;;;31.52;;
71303;SDS011;59091;47.446;19.148;2024-01-15T00:06:53;66.10;;;30.05;;
71303;SDS011;59091;47.446;19.148;2024-01-15T00:09:19;63.60;;;29.58;;
71303;SDS011;59091;47.446;19.148;2024-01-15T00:11:44;61.30;;;28.98;;
71303;SDS011;59091;47.446;19.148;2024-01-15T00:14:10;63.05;;;29.45;;
71303;SDS011;59091;47.446;19.148;2024-01-15T00:16:35;61.45;;;28.92;;
71303;SDS011;59091;47.446;19.148;2024-01-15T00:19:00;59.67;;;27.65;;
71303;SDS011;59091;47.446;19.148;2024-01-15T00:21:26;59.22;;;28.10;;
71303;SDS011;59091;47.446;19.148;2024-01-15T00:23:53;60.92;;;28.50;;
71303;SDS011;59091;47.446;19.148;2024-01-15T00:26:18;59.40;;;28.30;;
71303;SDS011;59091;47.446;19.148;2024-01-15T00:28:44;53.67;;;27.45;;
71303;SDS011;59091;47.446;19.148;2024-01-15T00:31:09;58.45;;;28.02;;
71303;SDS011;59091;47.446;19.148;2024-01-15T00:33:35;53.10;;;26.95;;
71303;SDS011;59091;47.446;19.148;2024-01-15T00:36:00;55.35;;;27.70;;
71303;SDS011;59091;47.446;19.148;2024-01-15T00:38:26;55.85;;;27.83;;
71303;SDS011;59091;47.446;19.148;2024-01-15T00:40:51;53.72;;;26.70;;
71303;SDS011;59091;47.446;19.148;2024-01-15T00:43:17;55.47;;;28.23;;
71303;SDS011;59091;47.446;19.148;2024-01-15T00:45:44;57.28;;;27.42;;
71303;SDS011;59091;47.446;19.148;2024-01-15T00:48:09;56.75;;;27.25;;
71303;SDS011;59091;47.446;19.148;2024-01-15T00:50:35;60.25;;;29.15;;
71303;SDS011;59091;47.446;19.148;2024-01-15T00:53:00;56.60;;;28.77;;
71303;SDS011;59091;47.446;19.148;2024-01-15T00:55:28;57.70;;;29.55;;
71303;SDS011;59091;47.446;19.148;2024-01-15T00:57:55;60.83;;;29.55;;
71303;SDS011;59091;47.446;19.148;2024-01-15T01:00:20;61.72;;;29.88;;
71303;SDS011;59091;47.446;19.148;2024-01-15T01:02:46;63.55;;;30.27;;
71303;SDS011;59091;47.446;19.148;2024-01-15T01:05:11;55.67;;;28.10;;
71303;SDS011;59091;47.446;19.148;2024-01-15T01:07:37;59.83;;;28.40;;
71303;SDS011;59091;47.446;19.148;2024-01-15T01:10:03;66.10;;;29.65;;
71303;SDS011;59091;47.446;19.148;2024-01-15T01:12:29;65.22;;;30.35;;
71303;SDS011;59091;47.446;19.148;2024-01-15T01:14:55;61.60;;;29.33;;
71303;SDS011;59091;47.446;19.148;2024-01-15T01:17:20;59.72;;;28.85;;
71303;SDS011;59091;47.446;19.148;2024-01-15T01:19:46;65.20;;;29.80;;
71303;SDS011;59091;47.446;19.148;2024-01-15T01:22:11;58.83;;;28.95;;
71303;SDS011;59091;47.446;19.148;2024-01-15T01:24:37;57.53;;;29.75;;
71303;SDS011;59091;47.446;19.148;2024-01-15T01:27:02;58.25;;;28.80;;
71303;SDS011;59091;47.446;19.148;2024-01-15T01:29:28;63.25;;;28.05;;
71303;SDS011;59091;47.446;19.148;2024-01-15T01:31:53;60.60;;;28.90;;
71303;SDS011;59091;47.446;19.148;2024-01-15T01:34:19;63.95;;;30.38;;
71303;SDS011;59091;47.446;19.148;2024-01-15T01:36:44;61.53;;;29.50;;
71303;SDS011;59091;47.446;19.148;2024-01-15T01:39:10;60.15;;;29.17;;
71303;SDS011;59091;47.446;19.148;2024-01-15T01:41:36;60.17;;;28.42;;
71303;SDS011;59091;47.446;19.148;2024-01-15T01:44:04;56.30;;;28.77;;
71303;SDS011;59091;47.446;19.148;2024-01-15T01:46:29;56.97;;;29.17;;
71303;SDS011;59091;47.446;19.148;2024-01-15T01:48:56;53.72;;;28.15;;
71303;SDS011;59091;47.446;19.148;2024-01-15T01:51:22;62.75;;;30.70;;
71303;SDS011;59091;47.446;19.148;2024-01-15T01:53:48;68.95;;;34.03;;
71303;SDS011;59091;47.446;19.148;2024-01-15T01:56:14;77.18;;;35.38;;
71303;SDS011;59091;47.446;19.148;2024-01-15T01:58:40;67.28;;;33.50;;
71303;SDS011;59091;47.446;19.148;2024-01-15T02:01:06;69.57;;;31.45;;
71303;SDS011;59091;47.446;19.148;2024-01-15T02:03:32;61.47;;;30.65;;
71303;SDS011;59091;47.446;19.148;2024-01-15T02:05:58;66.97;;;31.40;;
71303;SDS011;59091;47.446;19.148;2024-01-15T02:08:25;70.95;;;30.33;;
71303;SDS011;59091;47.446;19.148;2024-01-15T02:10:51;62.20;;;29.13;;
71303;SDS011;59091;47.446;19.148;2024-01-15T02:13:17;59.58;;;29.15;;
71303;SDS011;59091;47.446;19.148;2024-01-15T02:15:43;55.70;;;28.63;;
71303;SDS011;59091;47.446;19.148;2024-01-15T02:18:08;58.50;;;30.05;;
71303;SDS011;59091;47.446;19.148;2024-01-15T02:20:34;63.00;;;28.30;;
71303;SDS011;59091;47.446;19.148;2024-01-15T02:25:41;63.42;;;29.58;;
71303;SDS011;59091;47.446;19.148;2024-01-15T02:28:10;61.03;;;29.95;;
71303;SDS011;59091;47.446;19.148;2024-01-15T02:30:42;66.65;;;30.48;;
71303;SDS011;59091;47.446;19.148;2024-01-15T02:33:08;59.60;;;28.92;;
71303;SDS011;59091;47.446;19.148;2024-01-15T02:35:35;61.35;;;29.67;;
71303;SDS011;59091;47.446;19.148;2024-01-15T02:38:07;58.80;;;28.83;;
71303;SDS011;59091;47.446;19.148;2024-01-15T02:40:33;59.58;;;28.75;;
71303;SDS011;59091;47.446;19.148;2024-01-15T02:42:59;64.07;;;29.02;;
71303;SDS011;59091;47.446;19.148;2024-01-15T02:45:24;63.40;;;29.67;;
71303;SDS011;59091;47.446;19.148;2024-01-15T02:47:50;58.72;;;28.50;;
71303;SDS011;59091;47.446;19.148;2024-01-15T02:50:15;59.92;;;29.40;;
71303;SDS011;59091;47.446;19.148;2024-01-15T02:52:43;59.85;;;29.35;;
71303;SDS011;59091;47.446;19.148;2024-01-15T02:55:09;55.13;;;28.80;;
71303;SDS011;59091;47.446;19.148;2024-01-15T02:57:35;61.08;;;29.23;;
71303;SDS011;59091;47.446;19.148;2024-01-15T03:00:00;58.90;;;28.55;;
71303;SDS011;59091;47.446;19.148;2024-01-15T03:02:26;68.93;;;30.27;;
71303;SDS011;59091;47.446;19.148;2024-01-15T03:04:51;59.00;;;28.65;;
71303;SDS011;59091;47.446;19.148;2024-01-15T03:07:17;61.58;;;28.73;;
71303;SDS011;59091;47.446;19.148;2024-01-15T03:09:43;57.88;;;28.17;;
71303;SDS011;59091;47.446;19.148;2024-01-15T03:12:08;58.30;;;29.35;;
71303;SDS011;59091;47.446;19.148;2024-01-15T03:14:34;61.33;;;29.45;;
71303;SDS011;59091;47.446;19.148;2024-01-15T03:17:00;59.45;;;29.33;;
71303;SDS011;59091;47.446;19.148;2024-01-15T03:19:26;58.13;;;30.02;;
71303;SDS011;59091;47.446;19.148;2024-01-15T03:21:51;60.33;;;29.90;;
71303;SDS011;59091;47.446;19.148;2024-01-15T03:24:17;61.55;;;27.67;;
71303;SDS011;59091;47.446;19.148;2024-01-15T03:26:42;62.90;;;31.10;;
71303;SDS011;59091;47.446;19.148;2024-01-15T03:29:07;63.10;;;31.35;;
71303;SDS011;59091;47.446;19.148;2024-01-15T03:31:33;67.10;;;31.00;;
71303;SDS011;59091;47.446;19.148;2024-01-15T03:33:58;67.45;;;31.38;;
71303;SDS011;59091;47.446;19.148;2024-01-15T03:36:24;63.28;;;30.75;;
71303;SDS011;59091;47.446;19.148;2024-01-15T03:38:49;67.10;;;31.60;;
71303;SDS011;59091;47.446;19.148;2024-01-15T03:41:15;72.25;;;32.40;;
71303;SDS011;59091;47.446;19.148;2024-01-15T03:43:40;65.45;;;32.03;;
71303;SDS011;59091;47.446;19.148;2024-01-15T03:46:06;63.92;;;30.70;;
71303;SDS011;59091;47.446;19.148;2024-01-15T03:48:32;58.55;;;28.98;;
71303;SDS011;59091;47.446;19.148;2024-01-15T03:50:57;60.90;;;30.17;;
71303;SDS011;59091;47.446;19.148;2024-01-15T03:53:22;65.22;;;31.20;;
71303;SDS011;59091;47.446;19.148;2024-01-15T03:55:48;69.28;;;30.95;;
71303;SDS011;59091;47.446;19.148;2024-01-15T03:58:14;64.95;;;32.03;;
71303;SDS011;59091;47.446;19.148;2024-01-15T04:00:40;64.28;;;30.95;;
71303;SDS011;59091;47.446;19.148;2024-01-15T04:03:06;62.35;;;31.27;;
71303;SDS011;59091;47.446;19.148;2024-01-15T04:05:31;65.65;;;30.70;;
71303;SDS011;59091;47.446;19.148;2024-01-15T04:07:56;69.80;;;32.00;;
71303;SDS011;59091;47.446;19.148;2024-01-15T04:10:22;68.28;;;31.08;;
71303;SDS011;59091;47.446;19.148;2024-01-15T04:12:47;65.55;;;30.95;;
71303;SDS011;59091;47.446;19.148;2024-01-15T04:15:13;61.75;;;30.85;;
71303;SDS011;59091;47.446;19.148;2024-01-15T04:17:38;68.07;;;32.60;;
71303;SDS011;59091;47.446;19.148;2024-01-15T04:20:04;67.53;;;31.20;;
71303;SDS011;59091;47.446;19.148;2024-01-15T04:22:30;67.78;;;30.70;;
71303;SDS011;59091;47.446;19.148;2024-01-15T04:24:55;73.10;;;32.47;;
71303;SDS011;59091;47.446;19.148;2024-01-15T04:27:21;64.40;;;30.90;;
71303;SDS011;59091;47.446;19.148;2024-01-15T04:29:46;68.88;;;32.63;;
71303;SDS011;59091;47.446;19.148;2024-01-15T04:32:12;72.50;;;32.92;;
71303;SDS011;59091;47.446;19.148;2024-01-15T04:34:37;69.43;;;33.08;;
71303;SDS011;59091;47.446;19.148;2024-01-15T04:37:02;70.03;;;31.50;;
71303;SDS011;59091;47.446;19.148;2024-01-15T04:39:28;67.03;;;32.42;;
71303;SDS011;59091;47.446;19.148;2024-01-15T04:41:54;67.93;;;32.17;;
71303;SDS011;59091;47.446;19.148;2024-01-15T04:44:19;69.80;;;31.33;;
71303;SDS011;59091;47.446;19.148;2024-01-15T04:46:45;64.93;;;31.88;;
71303;SDS011;59091;47.446;19.148;2024-01-15T04:49:10;67.60;;;30.73;;
71303;SDS011;59091;47.446;19.148;2024-01-15T04:51:36;66.38;;;30.75;;
71303;SDS011;59091;47.446;19.148;2024-01-15T04:54:02;65.65;;;31.42;;
71303;SDS011;59091;47.446;19.148;2024-01-15T04:56:27;62.15;;;31.67;;
71303;SDS011;59091;47.446;19.148;2024-01-15T04:58:52;68.28;;;32.28;;
71303;SDS011;59091;47.446;19.148;2024-01-15T05:01:18;64.22;;;30.98;;
71303;SDS011;59091;47.446;19.148;2024-01-15T05:03:43;65.45;;;30.88;;
71303;SDS011;59091;47.446;19.148;2024-01-15T05:06:09;65.35;;;32.55;;
71303;SDS011;59091;47.446;19.148;2024-01-15T05:08:34;65.43;;;31.65;;
71303;SDS011;59091;47.446;19.148;2024-01-15T05:11:00;62.15;;;31.75;;
71303;SDS011;59091;47.446;19.148;2024-01-15T05:13:25;66.80;;;32.22;;
71303;SDS011;59091;47.446;19.148;2024-01-15T05:15:51;66.68;;;31.85;;
71303;SDS011;59091;47.446;19.148;2024-01-15T05:18:16;71.47;;;32.47;;
71303;SDS011;59091;47.446;19.148;2024-01-15T05:20:42;68.00;;;32.63;;
71303;SDS011;59091;47.446;19.148;2024-01-15T05:23:07;67.82;;;32.25;;
71303;SDS011;59091;47.446;19.148;2024-01-15T05:25:33;72.75;;;32.40;;
71303;SDS011;59091;47.446;19.148;2024-01-15T05:27:58;70.43;;;34.20;;
71303;SDS011;59091;47.446;19.148;2024-01-15T05:30:24;66.50;;;32.90;;
71303;SDS011;59091;47.446;19.148;2024-01-15T05:32:49;70.72;;;32.70;;
71303;SDS011;59091;47.446;19.148;2024-01-15T05:35:15;72.72;;;33.50;;
71303;SDS011;59091;47.446;19.148;2024-01-15T05:37:43;65.88;;;33.97;;
71303;SDS011;59091;47.446;19.148;2024-01-15T05:40:10;67.13;;;33.85;;
71303;SDS011;59091;47.446;19.148;2024-01-15T05:42:36;70.78;;;34.35;;
71303;SDS011;59091;47.446;19.148;2024-01-15T05:45:02;64.80;;;32.88;;
71303;SDS011;59091;47.446;19.148;2024-01-15T05:47:29;74.28;;;33.47;;
71303;SDS011;59091;47.446;19.148;2024-01-15T05:49:55;66.18;;;32.92;;
71303;SDS011;59091;47.446;19.148;2024-01-15T05:52:21;70.30;;;33.28;;
71303;SDS011;59091;47.446;19.148;2024-01-15T05:54:47;66.28;;;33.78;;
71303;SDS011;59091;47.446;19.148;2024-01-15T05:57:12;70.18;;;33.70;;
71303;SDS011;59091;47.446;19.148;2024-01-15T05:59:38;73.57;;;34.22;;
71303;SDS011;59091;47.446;19.148;2024-01-15T06:02:03;82.40;;;37.55;;
71303;SDS011;59091;47.446;19.148;2024-01-15T06:04:29;75.93;;;35.83;;
71303;SDS011;59091;47.446;19.148;2024-01-15T06:06:54;76.78;;;36.53;;
71303;SDS011;59091;47.446;19.148;2024-01-15T06:09:20;72.40;;;35.38;;
71303;SDS011;59091;47.446;19.148;2024-01-15T06:11:45;69.72;;;34.80;;
71303;SDS011;59091;47.446;19.148;2024-01-15T06:14:11;75.03;;;34.95;;
71303;SDS011;59091;47.446;19.148;2024-01-15T06:16:36;84.95;;;37.38;;
71303;SDS011;59091;47.446;19.148;2024-01-15T06:19:01;83.55;;;38.00;;
71303;SDS011;59091;47.446;19.148;2024-01-15T06:21:28;82.30;;;38.85;;
71303;SDS011;59091;47.446;19.148;2024-01-15T06:23:53;83.05;;;38.50;;
71303;SDS011;59091;47.446;19.148;2024-01-15T06:26:18;80.63;;;39.20;;
71303;SDS011;59091;47.446;19.148;2024-01-15T06:28:44;75.05;;;36.10;;
71303;SDS011;59091;47.446;19.148;2024-01-15T06:31:09;80.90;;;36.17;;
71303;SDS011;59091;47.446;19.148;2024-01-15T06:33:35;80.57;;;37.53;;
71303;SDS011;59091;47.446;19.148;2024-01-15T06:36:00;76.20;;;37.38;;
71303;SDS011;59091;47.446;19.148;2024-01-15T06:38:26;73.15;;;35.72;;
71303;SDS011;59091;47.446;19.148;2024-01-15T06:40:51;67.72;;;33.80;;
71303;SDS011;59091;47.446;19.148;2024-01-15T06:43:17;72.68;;;34.50;;
71303;SDS011;59091;47.446;19.148;2024-01-15T06:45:43;67.68;;;32.72;;
71303;SDS011;59091;47.446;19.148;2024-01-15T06:48:09;81.95;;;34.75;;
71303;SDS011;59091;47.446;19.148;2024-01-15T06:50:34;75.45;;;34.47;;
71303;SDS011;59091;47.446;19.148;2024-01-15T06:53:00;69.65;;;33.50;;
71303;SDS011;59091;47.446;19.148;2024-01-15T06:55:25;66.85;;;33.63;;
71303;SDS011;59091;47.446;19.148;2024-01-15T06:57:51;75.38;;;33.17;;
71303;SDS011;59091;47.446;19.148;2024-01-15T07:00:17;70.82;;;34.08;;
71303;SDS011;59091;47.446;19.148;2024-01-15T07:02:44;70.00;;;34.03;;
71303;SDS011;59091;47.446;19.148;2024-01-15T07:05:10;69.25;;;35.30;;
71303;SDS011;59091;47.446;19.148;2024-01-15T07:07:36;72.72;;;35.45;;
71303;SDS011;59091;47.446;19.148;2024-01-15T07:10:01;73.15;;;36.83;;
71303;SDS011;59091;47.446;19.148;2024-01-15T07:12:28;81.03;;;39.60;;
71303;SDS011;59091;47.446;19.148;2024-01-15T07:14:54;77.28;;;38.97;;
71303;SDS011;59091;47.446;19.148;2024-01-15T07:17:20;77.20;;;38.00;;
71303;SDS011;59091;47.446;19.148;2024-01-15T07:19:46;81.03;;;37.60;;
71303;SDS011;59091;47.446;19.148;2024-01-15T07:22:11;78.30;;;35.72;;
71303;SDS011;59091;47.446;19.148;2024-01-15T07:24:37;68.25;;;35.95;;
71303;SDS011;59091;47.446;19.148;2024-01-15T07:27:03;84.25;;;38.47;;
71303;SDS011;59091;47.446;19.148;2024-01-15T07:29:29;74.75;;;36.85;;
71303;SDS011;59091;47.446;19.148;2024-01-15T07:31:56;76.60;;;37.55;;
71303;SDS011;59091;47.446;19.148;2024-01-15T07:34:21;76.53;;;37.40;;
71303;SDS011;59091;47.446;19.148;2024-01-15T07:36:47;76.55;;;38.42;;
71303;SDS011;59091;47.446;19.148;2024-01-15T07:39:12;78.85;;;37.75;;
71303;SDS011;59091;47.446;19.148;2024-01-15T07:41:38;81.15;;;38.70;;
71303;SDS011;59091;47.446;19.148;2024-01-15T07:44:04;76.75;;;37.50;;
71303;SDS011;59091;47.446;19.148;2024-01-15T07:46:30;78.53;;;39.13;;
71303;SDS011;59091;47.446;19.148;2024-01-15T07:48:55;79.20;;;39.63;;
71303;SDS011;59091;47.446;19.148;2024-01-15T07:51:23;77.80;;;38.65;;
71303;SDS011;59091;47.446;19.148;2024-01-15T07:53:48;81.65;;;38.95;;
71303;SDS011;59091;47.446;19.148;2024-01-15T07:56:14;72.57;;;36.35;;
71303;SDS011;59091;47.446;19.148;2024-01-15T07:58:40;81.07;;;40.70;;
71303;SDS011;59091;47.446;19.148;2024-01-15T08:01:05;78.60;;;38.78;;
71303;SDS011;59091;47.446;19.148;2024-01-15T08:03:31;79.15;;;39.42;;
71303;SDS011;59091;47.446;19.148;2024-01-15T08:05:56;80.38;;;39.40;;
71303;SDS011;59091;47.446;19.148;2024-01-15T08:08:24;57.92;;;28.48;;
71303;SDS011;59091;47.446;19.148;2024-01-15T08:10:51;84.60;;;39.97;;
71303;SDS011;59091;47.446;19.148;2024-01-15T08:13:17;80.32;;;39.80;;
71303;SDS011;59091;47.446;19.148;2024-01-15T08:15:42;81.82;;;41.10;;
71303;SDS011;59091;47.446;19.148;2024-01-15T08:18:08;92.53;;;43.47;;
71303;SDS011;59091;47.446;19.148;2024-01-15T08:20:34;81.65;;;41.58;;
71303;SDS011;59091;47.446;19.148;2024-01-15T08:22:59;86.03;;;41.17;;
71303;SDS011;59091;47.446;19.148;2024-01-15T08:25:25;91.45;;;43.78;;
71303;SDS011;59091;47.446;19.148;2024-01-15T08:27:51;89.47;;;41.10;;
71303;SDS011;59091;47.446;19.148;2024-01-15T08:30:17;84.05;;;41.92;;
71303;SDS011;59091;47.446;19.148;2024-01-15T08:32:44;87.35;;;42.97;;
71303;SDS011;59091;47.446;19.148;2024-01-15T08:35:09;81.93;;;38.88;;
71303;SDS011;59091;47.446;19.148;2024-01-15T08:37:36;83.13;;;39.80;;
71303;SDS011;59091;47.446;19.148;2024-01-15T08:40:03;80.45;;;40.53;;
71303;SDS011;59091;47.446;19.148;2024-01-15T08:42:29;71.18;;;36.78;;
71303;SDS011;59091;47.446;19.148;2024-01-15T08:44:54;64.55;;;32.65;;
71303;SDS011;59091;47.446;19.148;2024-01-15T08:47:19;77.50;;;36.13;;
71303;SDS011;59091;47.446;19.148;2024-01-15T08:49:45;70.05;;;34.38;;
71303;SDS011;59091;47.446;19.148;2024-01-15T08:52:11;77.40;;;36.67;;
71303;SDS011;59091;47.446;19.148;2024-01-15T08:54:36;73.00;;;32.85;;
71303;SDS011;59091;47.446;19.148;2024-01-15T08:57:02;72.88;;;34.17;;
71303;SDS011;59091;47.446;19.148;2024-01-15T08:59:28;72.88;;;33.72;;
71303;SDS011;59091;47.446;19.148;2024-01-15T09:01:53;74.88;;;32.65;;
71303;SDS011;59091;47.446;19.148;2024-01-15T09:04:19;56.88;;;28.58;;
71303;SDS011;59091;47.446;19.148;2024-01-15T09:06:45;45.35;;;21.02;;
71303;SDS011;59091;47.446;19.148;2024-01-15T09:09:12;38.30;;;20.08;;
71303;SDS011;59091;47.446;19.148;2024-01-15T09:11:37;30.00;;;16.10;;
71303;SDS011;59091;47.446;19.148;2024-01-15T09:14:03;29.40;;;14.68;;
71303;SDS011;59091;47.446;19.148;2024-01-15T09:16:28;28.17;;;13.98;;
71303;SDS011;59091;47.446;19.148;2024-01-15T09:18:54;29.38;;;15.00;;
71303;SDS011;59091;47.446;19.148;2024-01-15T09:21:22;28.77;;;14.27;;
71303;SDS011;59091;47.446;19.148;2024-01-15T09:23:47;32.10;;;15.00;;
71303;SDS011;59091;47.446;19.148;2024-01-15T09:26:13;29.00;;;14.82;;
71303;SDS011;59091;47.446;19.148;2024-01-15T09:28:38;34.03;;;15.25;;
71303;SDS011;59091;47.446;19.148;2024-01-15T09:31:03;31.75;;;15.88;;
71303;SDS011;59091;47.446;19.148;2024-01-15T09:33:29;29.00;;;15.07;;
71303;SDS011;59091;47.446;19.148;2024-01-15T09:35:54;28.48;;;13.85;;
71303;SDS011;59091;47.446;19.148;2024-01-15T09:38:20;28.20;;;14.15;;
71303;SDS011;59091;47.446;19.148;2024-01-15T09:40:46;25.27;;;13.75;;
71303;SDS011;59091;47.446;19.148;2024-01-15T09:43:12;16.95;;;9.98;;
71303;SDS011;59091;47.446;19.148;2024-01-15T09:45:39;23.30;;;11.52;;
71303;SDS011;59091;47.446;19.148;2024-01-15T09:48:04;22.25;;;11.27;;
71303;SDS011;59091;47.446;19.148;2024-01-15T09:50:30;21.48;;;10.90;;
71303;SDS011;59091;47.446;19.148;2024-01-15T09:52:56;18.63;;;9.07;;
71303;SDS011;59091;47.446;19.148;2024-01-15T09:55:22;18.83;;;9.88;;
71303;SDS011;59091;47.446;19.148;2024-01-15T09:57:48;16.27;;;8.50;;
71303;SDS011;59091;47.446;19.148;2024-01-15T10:00:17;17.42;;;9.95;;
71303;SDS011;59091;47.446;19.148;2024-01-15T10:02:43;18.00;;;8.82;;
71303;SDS011;59091;47.446;19.148;2024-01-15T10:05:08;19.45;;;9.65;;
71303;SDS011;59091;47.446;19.148;2024-01-15T10:07:35;21.13;;;11.20;;
71303;SDS011;59091;47.446;19.148;2024-01-15T10:10:02;20.23;;;11.30;;
71303;SDS011;59091;47.446;19.148;2024-01-15T10:12:28;19.70;;;11.05;;
71303;SDS011;59091;47.446;19.148;2024-01-15T10:14:55;19.88;;;10.82;;
71303;SDS011;59091;47.446;19.148;2024-01-15T10:17:21;18.23;;;9.90;;
71303;SDS011;59091;47.446;19.148;2024-01-15T10:19:47;17.77;;;9.82;;
71303;SDS011;59091;47.446;19.148;2024-01-15T10:22:16;14.85;;;7.72;;
71303;SDS011;59091;47.446;19.148;2024-01-15T10:24:43;15.60;;;8.82;;
71303;SDS011;59091;47.446;19.148;2024-01-15T10:27:08;22.02;;;8.35;;
71303;SDS011;59091;47.446;19.148;2024-01-15T10:29:34;15.52;;;8.30;;
71303;SDS011;59091;47.446;19.148;2024-01-15T10:32:00;16.73;;;8.57;;
71303;SDS011;59091;47.446;19.148;2024-01-15T10:34:26;17.90;;;8.45;;
71303;SDS011;59091;47.446;19.148;2024-01-15T10:36:52;12.38;;;7.03;;
71303;SDS011;59091;47.446;19.148;2024-01-15T10:39:21;12.07;;;7.35;;
71303;SDS011;59091;47.446;19.148;2024-01-15T10:41:47;14.95;;;7.90;;
71303;SDS011;59091;47.446;19.148;2024-01-15T10:44:12;14.98;;;7.38;;
71303;SDS011;59091;47.446;19.148;2024-01-15T10:46:38;14.88;;;8.10;;
71303;SDS011;59091;47.446;19.148;2024-01-15T10:49:04;17.02;;;7.30;;
71303;SDS011;59091;47.446;19.148;2024-01-15T10:51:30;12.30;;;7.65;;
71303;SDS011;59091;47.446;19.148;2024-01-15T10:53:56;15.60;;;8.18;;
71303;SDS011;59091;47.446;19.148;2024-01-15T10:56:22;13.02;;;7.45;;
71303;SDS011;59091;47.446;19.148;2024-01-15T10:58:49;13.45;;;7.43;;
71303;SDS011;59091;47.446;19.148;2024-01-15T11:01:15;12.50;;;7.47;;
71303;SDS011;59091;47.446;19.148;2024-01-15T11:03:42;15.43;;;7.43;;
71303;SDS011;59091;47.446;19.148;2024-01-15T11:06:21;13.50;;;8.02;;
71303;SDS011;59091;47.446;19.148;2024-01-15T11:08:49;13.70;;;7.10;;
71303;SDS011;59091;47.446;19.148;2024-01-15T11:11:18;13.40;;;7.05;;
71303;SDS011;59091;47.446;19.148;2024-01-15T11:13:46;11.90;;;7.60;;
71303;SDS011;59091;47.446;19.148;2024-01-15T11:16:14;15.45;;;7.38;;
71303;SDS011;59091;47.446;19.148;2024-01-15T11:18:41;10.77;;;7.43;;
71303;SDS011;59091;47.446;19.148;2024-01-15T11:21:22;9.07;;;5.85;;
71303;SDS011;59091;47.446;19.148;2024-01-15T11:24:06;8.45;;;5.70;;
71303;SDS011;59091;47.446;19.148;2024-01-15T11:26:43;10.50;;;5.57;;
71303;SDS011;59091;47.446;19.148;2024-01-15T11:29:10;10.73;;;6.20;;
71303;SDS011;59091;47.446;19.148;2024-01-15T11:37:23;11.80;;;5.95;;
71303;SDS011;59091;47.446;19.148;2024-01-15T11:39:50;12.63;;;5.35;;
71303;SDS011;59091;47.446;19.148;2024-01-15T11:42:20;9.65;;;5.45;;
71303;SDS011;59091;47.446;19.148;2024-01-15T11:44:47;8.27;;;5.28;;
71303;SDS011;59091;47.446;19.148;2024-01-15T11:47:13;8.60;;;5.15;;
71303;SDS011;59091;47.446;19.148;2024-01-15T11:49:50;13.43;;;5.75;;
71303;SDS011;59091;47.446;19.148;2024-01-15T11:52:27;8.35;;;4.95;;
71303;SDS011;59091;47.446;19.148;2024-01-15T12:00:08;9.93;;;5.50;;
71303;SDS011;59091;47.446;19.148;2024-01-15T12:02:34;9.88;;;6.13;;
71303;SDS011;59091;47.446;19.148;2024-01-15T12:05:00;10.68;;;6.13;;
71303;SDS011;59091;47.446;19.148;2024-01-15T12:07:25;19.70;;;7.25;;
71303;SDS011;59091;47.446;19.148;2024-01-15T12:09:51;9.82;;;5.60;;
71303;SDS011;59091;47.446;19.148;2024-01-15T12:15:24;11.13;;;5.55;;
71303;SDS011;59091;47.446;19.148;2024-01-15T12:17:51;11.35;;;5.80;;
71303;SDS011;59091;47.446;19.148;2024-01-15T12:20:17;13.60;;;5.82;;
71303;SDS011;59091;47.446;19.148;2024-01-15T12:22:43;6.22;;;3.92;;
71303;SDS011;59091;47.446;19.148;2024-01-15T12:25:09;8.13;;;4.85;;
71303;SDS011;59091;47.446;19.148;2024-01-15T12:27:35;10.80;;;5.65;;
71303;SDS011;59091;47.446;19.148;2024-01-15T12:30:00;7.05;;;4.90;;
71303;SDS011;59091;47.446;19.148;2024-01-15T12:32:26;7.15;;;4.30;;
71303;SDS011;59091;47.446;19.148;2024-01-15T12:34:51;10.35;;;4.72;;
71303;SDS011;59091;47.446;19.148;2024-01-15T12:37:20;6.25;;;4.78;;
71303;SDS011;59091;47.446;19.148;2024-01-15T12:39:46;9.63;;;4.28;;
71303;SDS011;59091;47.446;19.148;2024-01-15T12:42:14;6.28;;;4.32;;
71303;SDS011;59091;47.446;19.148;2024-01-15T12:44:40;7.70;;;4.53;;
71303;SDS011;59091;47.446;19.148;2024-01-15T12:47:05;8.77;;;4.93;;
71303;SDS011;59091;47.446;19.148;2024-01-15T12:49:31;10.32;;;4.80;;
71303;SDS011;59091;47.446;19.148;2024-01-15T12:51:57;10.73;;;5.75;;
71303;SDS011;59091;47.446;19.148;2024-01-15T12:54:23;8.90;;;4.95;;
71303;SDS011;59091;47.446;19.148;2024-01-15T12:56:49;8.65;;;4.95;;
71303;SDS011;59091;47.446;19.148;2024-01-15T12:59:16;11.02;;;5.20;;
71303;SDS011;59091;47.446;19.148;2024-01-15T13:01:41;10.60;;;4.78;;
71303;SDS011;59091;47.446;19.148;2024-01-15T13:04:07;15.82;;;5.45;;
71303;SDS011;59091;47.446;19.148;2024-01-15T13:06:35;11.82;;;5.45;;
71303;SDS011;59091;47.446;19.148;2024-01-15T13:09:02;7.70;;;4.68;;
71303;SDS011;59091;47.446;19.148;2024-01-15T13:11:31;8.85;;;4.32;;
71303;SDS011;59091;47.446;19.148;2024-01-15T13:13:57;6.72;;;4.25;;
71303;SDS011;59091;47.446;19.148;2024-01-15T13:16:23;7.55;;;4.45;;
71303;SDS011;59091;47.446;19.148;2024-01-15T13:18:48;7.10;;;4.28;;
71303;SDS011;59091;47.446;19.148;2024-01-15T13:21:15;14.95;;;3.88;;
71303;SDS011;59091;47.446;19.148;2024-01-15T13:23:40;6.80;;;4.30;;
71303;SDS011;59091;47.446;19.148;2024-01-15T13:26:06;8.43;;;4.20;;
71303;SDS011;59091;47.446;19.148;2024-01-15T13:28:32;6.32;;;3.80;;
71303;SDS011;59091;47.446;19.148;2024-01-15T13:30:57;7.32;;;3.97;;
71303;SDS011;59091;47.446;19.148;2024-01-15T13:33:23;6.75;;;4.28;;
71303;SDS011;59091;47.446;19.148;2024-01-15T13:35:48;10.13;;;4.82;;
71303;SDS011;59091;47.446;19.148;2024-01-15T13:38:15;6.72;;;4.70;;
71303;SDS011;59091;47.446;19.148;2024-01-15T13:40:41;6.72;;;4.55;;
71303;SDS011;59091;47.446;19.148;2024-01-15T13:43:06;10.13;;;4.82;;
71303;SDS011;59091;47.446;19.148;2024-01-15T13:45:33;9.10;;;4.40;;
71303;SDS011;59091;47.446;19.148;2024-01-15T13:48:00;5.85;;;4.10;;
71303;SDS011;59091;47.446;19.148;2024-01-15T13:50:26;8.02;;;4.05;;
71303;SDS011;59091;47.446;19.148;2024-01-15T13:52:52;9.70;;;4.63;;
71303;SDS011;59091;47.446;19.148;2024-01-15T13:55:18;9.30;;;4.32;;
71303;SDS011;59091;47.446;19.148;2024-01-15T13:57:43;8.40;;;4.70;;
71303;SDS011;59091;47.446;19.148;2024-01-15T14:00:09;16.65;;;5.20;;
71303;SDS011;59091;47.446;19.148;2024-01-15T14:02:36;6.25;;;4.20;;
71303;SDS011;59091;47.446;19.148;2024-01-15T14:05:02;11.38;;;4.70;;
71303;SDS011;59091;47.446;19.148;2024-01-15T14:07:28;7.32;;;4.53;;
71303;SDS011;59091;47.446;19.148;2024-01-15T14:09:53;10.70;;;4.70;;
71303;SDS011;59091;47.446;19.148;2024-01-15T14:12:19;7.65;;;4.35;;
71303;SDS011;59091;47.446;19.148;2024-01-15T14:14:44;6.53;;;4.13;;
71303;SDS011;59091;47.446;19.148;2024-01-15T14:17:09;10.75;;;4.50;;
71303;SDS011;59091;47.446;19.148;2024-01-15T14:19:35;5.88;;;4.13;;
71303;SDS011;59091;47.446;19.148;2024-01-15T14:22:00;11.15;;;4.28;;
71303;SDS011;59091;47.446;19.148;2024-01-15T14:24:26;6.63;;;3.83;;